sensor_id;sensor_type;location;lat;lon;timestamp;P1;durP1;ratioP1;P2;durP2;ratioP2
66680;SDS011;53575;51.366;12.350;2022-08-19T00:00:29;34.38;;;23.42;;
66680;SDS011;53575;51.366;12.350;2022-08-19T00:02:54;33.53;;;25.73;;
66680;SDS011;53575;51.366;12.350;2022-08-19T00:05:20;31.73;;;23.98;;
66680;SDS011;53575;51.366;12.350;2022-08-19T00:07:47;33.90;;;27.10;;
66680;SDS011;53575;51.366;12.350;2022-08-19T00:10:13;30.20;;;24.02;;
66680;SDS011;53575;51.366;12.350;2022-08-19T00:12:40;28.92;;;23.65;;
66680;SDS011;53575;51.366;12.350;2022-08-19T00:15:07;32.58;;;25.20;;
66680;SDS011;53575;51.366;12.350;2022-08-19T00:17:43;31.98;;;25.02;;
66680;SDS011;53575;51.366;12.350;2022-08-19T00:20:10;30.40;;;24.67;;
66680;SDS011;53575;51.366;12.350;2022-08-19T00:22:38;30.33;;;24.87;;
66680;SDS011;53575;51.366;12.350;2022-08-19T00:25:05;31.42;;;25.05;;
66680;SDS011;53575;51.366;12.350;2022-08-19T00:27:31;31.50;;;23.35;;
66680;SDS011;53575;51.366;12.350;2022-08-19T00:29:56;31.80;;;24.33;;
66680;SDS011;53575;51.366;12.350;2022-08-19T00:32:23;31.25;;;24.65;;
66680;SDS011;53575;51.366;12.350;2022-08-19T00:34:50;31.95;;;24.98;;
66680;SDS011;53575;51.366;12.350;2022-08-19T00:37:17;32.38;;;25.40;;
66680;SDS011;53575;51.366;12.350;2022-08-19T00:39:44;30.50;;;24.98;;
66680;SDS011;53575;51.366;12.350;2022-08-19T00:42:10;33.88;;;24.15;;
66680;SDS011;53575;51.366;12.350;2022-08-19T00:44:35;31.02;;;24.88;;
66680;SDS011;53575;51.366;12.350;2022-08-19T00:47:01;35.30;;;26.27;;
66680;SDS011;53575;51.366;12.350;2022-08-19T00:49:28;31.35;;;25.15;;
66680;SDS011;53575;51.366;12.350;2022-08-19T00:52:00;37.58;;;26.45;;
66680;SDS011;53575;51.366;12.350;2022-08-19T00:54:31;32.30;;;26.05;;
66680;SDS011;53575;51.366;12.350;2022-08-19T00:56:58;36.00;;;27.17;;
66680;SDS011;53575;51.366;12.350;2022-08-19T00:59:24;36.72;;;26.80;;
66680;SDS011;53575;51.366;12.350;2022-08-19T01:01:50;41.28;;;28.50;;
66680;SDS011;53575;51.366;12.350;2022-08-19T01:04:15;38.38;;;29.02;;
66680;SDS011;53575;51.366;12.350;2022-08-19T01:06:41;40.85;;;29.30;;
66680;SDS011;53575;51.366;12.350;2022-08-19T01:09:06;36.05;;;27.80;;
66680;SDS011;53575;51.366;12.350;2022-08-19T01:11:34;40.22;;;28.75;;
66680;SDS011;53575;51.366;12.350;2022-08-19T01:14:02;37.45;;;28.50;;
66680;SDS011;53575;51.366;12.350;2022-08-19T01:16:28;39.42;;;28.67;;
66680;SDS011;53575;51.366;12.350;2022-08-19T01:18:56;39.60;;;29.83;;
66680;SDS011;53575;51.366;12.350;2022-08-19T01:21:40;39.10;;;29.42;;
66680;SDS011;53575;51.366;12.350;2022-08-19T01:24:09;41.03;;;29.75;;
66680;SDS011;53575;51.366;12.350;2022-08-19T01:26:39;39.95;;;28.95;;
66680;SDS011;53575;51.366;12.350;2022-08-19T01:29:07;40.40;;;29.23;;
66680;SDS011;53575;51.366;12.350;2022-08-19T01:31:33;42.25;;;30.45;;
66680;SDS011;53575;51.366;12.350;2022-08-19T01:34:00;40.33;;;29.90;;
66680;SDS011;53575;51.366;12.350;2022-08-19T01:36:29;42.17;;;30.90;;
66680;SDS011;53575;51.366;12.350;2022-08-19T01:38:55;41.75;;;29.70;;
66680;SDS011;53575;51.366;12.350;2022-08-19T01:41:21;46.53;;;31.17;;
66680;SDS011;53575;51.366;12.350;2022-08-19T01:43:48;48.22;;;34.20;;
66680;SDS011;53575;51.366;12.350;2022-08-19T01:46:15;46.30;;;30.10;;
66680;SDS011;53575;51.366;12.350;2022-08-19T01:48:42;45.45;;;31.55;;
66680;SDS011;53575;51.366;12.350;2022-08-19T01:51:09;47.00;;;32.65;;
66680;SDS011;53575;51.366;12.350;2022-08-19T01:53:35;46.83;;;32.20;;
66680;SDS011;53575;51.366;12.350;2022-08-19T01:56:02;47.97;;;33.25;;
66680;SDS011;53575;51.366;12.350;2022-08-19T01:58:30;46.22;;;32.28;;
66680;SDS011;53575;51.366;12.350;2022-08-19T02:01:00;47.53;;;31.60;;
66680;SDS011;53575;51.366;12.350;2022-08-19T02:03:26;48.05;;;32.15;;
66680;SDS011;53575;51.366;12.350;2022-08-19T02:05:56;47.60;;;33.47;;
66680;SDS011;53575;51.366;12.350;2022-08-19T02:08:24;45.03;;;32.13;;
66680;SDS011;53575;51.366;12.350;2022-08-19T02:10:51;43.47;;;32.55;;
66680;SDS011;53575;51.366;12.350;2022-08-19T02:13:16;42.70;;;33.13;;
66680;SDS011;53575;51.366;12.350;2022-08-19T02:15:41;46.60;;;32.83;;
66680;SDS011;53575;51.366;12.350;2022-08-19T02:18:07;45.65;;;32.00;;
66680;SDS011;53575;51.366;12.350;2022-08-19T02:20:33;50.00;;;34.13;;
66680;SDS011;53575;51.366;12.350;2022-08-19T02:22:59;47.35;;;34.15;;
66680;SDS011;53575;51.366;12.350;2022-08-19T02:25:26;45.75;;;33.33;;
66680;SDS011;53575;51.366;12.350;2022-08-19T02:27:51;46.58;;;34.40;;
66680;SDS011;53575;51.366;12.350;2022-08-19T02:30:18;44.92;;;34.22;;
66680;SDS011;53575;51.366;12.350;2022-08-19T02:32:44;48.22;;;33.47;;
66680;SDS011;53575;51.366;12.350;2022-08-19T02:35:09;48.58;;;33.25;;
66680;SDS011;53575;51.366;12.350;2022-08-19T02:37:35;43.08;;;33.80;;
66680;SDS011;53575;51.366;12.350;2022-08-19T02:40:19;44.95;;;32.53;;
66680;SDS011;53575;51.366;12.350;2022-08-19T02:42:45;46.13;;;33.20;;
66680;SDS011;53575;51.366;12.350;2022-08-19T02:45:11;42.72;;;31.48;;
66680;SDS011;53575;51.366;12.350;2022-08-19T02:47:38;39.50;;;30.95;;
66680;SDS011;53575;51.366;12.350;2022-08-19T02:50:04;47.60;;;33.50;;
66680;SDS011;53575;51.366;12.350;2022-08-19T02:52:31;40.75;;;32.30;;
66680;SDS011;53575;51.366;12.350;2022-08-19T02:54:58;47.15;;;32.75;;
66680;SDS011;53575;51.366;12.350;2022-08-19T02:57:23;42.33;;;32.17;;
66680;SDS011;53575;51.366;12.350;2022-08-19T02:59:49;44.90;;;32.85;;
66680;SDS011;53575;51.366;12.350;2022-08-19T03:02:15;41.53;;;32.40;;
66680;SDS011;53575;51.366;12.350;2022-08-19T03:04:41;40.13;;;30.20;;
66680;SDS011;53575;51.366;12.350;2022-08-19T03:07:07;43.17;;;31.75;;
66680;SDS011;53575;51.366;12.350;2022-08-19T03:09:35;39.45;;;31.00;;
66680;SDS011;53575;51.366;12.350;2022-08-19T03:12:02;34.45;;;27.50;;
66680;SDS011;53575;51.366;12.350;2022-08-19T03:14:35;33.92;;;27.25;;
66680;SDS011;53575;51.366;12.350;2022-08-19T03:17:02;29.38;;;25.17;;
66680;SDS011;53575;51.366;12.350;2022-08-19T03:19:29;30.38;;;25.52;;
66680;SDS011;53575;51.366;12.350;2022-08-19T03:21:56;28.08;;;23.38;;
66680;SDS011;53575;51.366;12.350;2022-08-19T03:24:22;26.80;;;23.05;;
66680;SDS011;53575;51.366;12.350;2022-08-19T03:26:49;26.90;;;22.83;;
66680;SDS011;53575;51.366;12.350;2022-08-19T03:29:18;28.50;;;23.55;;
66680;SDS011;53575;51.366;12.350;2022-08-19T03:31:44;26.20;;;22.70;;
66680;SDS011;53575;51.366;12.350;2022-08-19T03:34:11;29.65;;;24.13;;
66680;SDS011;53575;51.366;12.350;2022-08-19T03:36:43;27.20;;;22.30;;
66680;SDS011;53575;51.366;12.350;2022-08-19T03:39:09;23.90;;;21.30;;
66680;SDS011;53575;51.366;12.350;2022-08-19T03:41:38;24.02;;;20.60;;
66680;SDS011;53575;51.366;12.350;2022-08-19T03:44:05;24.85;;;20.27;;
66680;SDS011;53575;51.366;12.350;2022-08-19T03:46:31;26.30;;;21.60;;
66680;SDS011;53575;51.366;12.350;2022-08-19T03:48:59;24.02;;;19.25;;
66680;SDS011;53575;51.366;12.350;2022-08-19T03:51:32;23.05;;;20.38;;
66680;SDS011;53575;51.366;12.350;2022-08-19T03:54:01;27.23;;;20.38;;
66680;SDS011;53575;51.366;12.350;2022-08-19T03:56:28;24.42;;;21.70;;
66680;SDS011;53575;51.366;12.350;2022-08-19T03:58:55;24.05;;;21.27;;
66680;SDS011;53575;51.366;12.350;2022-08-19T04:01:22;24.48;;;20.00;;
66680;SDS011;53575;51.366;12.350;2022-08-19T04:03:51;26.35;;;20.70;;
66680;SDS011;53575;51.366;12.350;2022-08-19T04:06:23;26.35;;;20.52;;
66680;SDS011;53575;51.366;12.350;2022-08-19T04:08:50;27.70;;;21.83;;
66680;SDS011;53575;51.366;12.350;2022-08-19T04:11:19;27.50;;;22.25;;
66680;SDS011;53575;51.366;12.350;2022-08-19T04:13:48;26.13;;;22.67;;
66680;SDS011;53575;51.366;12.350;2022-08-19T04:16:16;29.75;;;24.75;;
66680;SDS011;53575;51.366;12.350;2022-08-19T04:18:42;28.83;;;24.50;;
66680;SDS011;53575;51.366;12.350;2022-08-19T04:21:08;30.92;;;24.63;;
66680;SDS011;53575;51.366;12.350;2022-08-19T04:23:45;32.95;;;26.02;;
66680;SDS011;53575;51.366;12.350;2022-08-19T04:26:17;32.90;;;26.55;;
66680;SDS011;53575;51.366;12.350;2022-08-19T04:28:45;34.75;;;26.80;;
66680;SDS011;53575;51.366;12.350;2022-08-19T04:31:14;36.30;;;29.02;;
66680;SDS011;53575;51.366;12.350;2022-08-19T04:33:41;36.35;;;28.63;;
66680;SDS011;53575;51.366;12.350;2022-08-19T04:36:07;36.72;;;29.13;;
66680;SDS011;53575;51.366;12.350;2022-08-19T04:38:34;36.35;;;28.50;;
66680;SDS011;53575;51.366;12.350;2022-08-19T04:41:02;34.10;;;28.80;;
66680;SDS011;53575;51.366;12.350;2022-08-19T04:43:47;37.25;;;29.40;;
66680;SDS011;53575;51.366;12.350;2022-08-19T04:46:14;36.63;;;29.40;;
66680;SDS011;53575;51.366;12.350;2022-08-19T04:48:39;39.75;;;31.83;;
66680;SDS011;53575;51.366;12.350;2022-08-19T04:51:06;40.28;;;30.85;;
66680;SDS011;53575;51.366;12.350;2022-08-19T04:53:36;33.97;;;28.70;;
66680;SDS011;53575;51.366;12.350;2022-08-19T04:56:13;40.28;;;31.00;;
66680;SDS011;53575;51.366;12.350;2022-08-19T04:58:41;40.80;;;32.63;;
66680;SDS011;53575;51.366;12.350;2022-08-19T05:01:17;37.17;;;30.30;;
66680;SDS011;53575;51.366;12.350;2022-08-19T05:03:44;37.20;;;31.60;;
66680;SDS011;53575;51.366;12.350;2022-08-19T05:06:11;39.85;;;30.95;;
66680;SDS011;53575;51.366;12.350;2022-08-19T05:08:40;38.10;;;30.98;;
66680;SDS011;53575;51.366;12.350;2022-08-19T05:11:09;41.38;;;32.22;;
66680;SDS011;53575;51.366;12.350;2022-08-19T05:13:41;40.67;;;32.22;;
66680;SDS011;53575;51.366;12.350;2022-08-19T05:16:08;43.95;;;32.88;;
66680;SDS011;53575;51.366;12.350;2022-08-19T05:18:35;44.38;;;33.70;;
66680;SDS011;53575;51.366;12.350;2022-08-19T05:21:19;44.78;;;34.00;;
66680;SDS011;53575;51.366;12.350;2022-08-19T05:24:05;48.00;;;36.42;;
66680;SDS011;53575;51.366;12.350;2022-08-19T05:26:37;53.38;;;38.03;;
66680;SDS011;53575;51.366;12.350;2022-08-19T05:29:05;48.58;;;37.03;;
66680;SDS011;53575;51.366;12.350;2022-08-19T05:31:32;45.35;;;34.83;;
66680;SDS011;53575;51.366;12.350;2022-08-19T05:33:58;46.58;;;35.72;;
66680;SDS011;53575;51.366;12.350;2022-08-19T05:36:26;44.95;;;35.47;;
66680;SDS011;53575;51.366;12.350;2022-08-19T05:38:53;44.92;;;35.72;;
66680;SDS011;53575;51.366;12.350;2022-08-19T05:41:19;51.25;;;36.55;;
66680;SDS011;53575;51.366;12.350;2022-08-19T05:43:48;50.80;;;37.97;;
66680;SDS011;53575;51.366;12.350;2022-08-19T05:46:16;49.03;;;38.47;;
66680;SDS011;53575;51.366;12.350;2022-08-19T05:48:46;47.70;;;36.78;;
66680;SDS011;53575;51.366;12.350;2022-08-19T05:51:13;46.10;;;36.08;;
66680;SDS011;53575;51.366;12.350;2022-08-19T05:53:41;48.15;;;35.75;;
66680;SDS011;53575;51.366;12.350;2022-08-19T05:56:11;47.42;;;36.95;;
66680;SDS011;53575;51.366;12.350;2022-08-19T05:58:41;49.92;;;36.38;;
66680;SDS011;53575;51.366;12.350;2022-08-19T06:01:12;45.10;;;36.33;;
66680;SDS011;53575;51.366;12.350;2022-08-19T06:03:40;46.95;;;36.88;;
66680;SDS011;53575;51.366;12.350;2022-08-19T06:06:09;46.78;;;36.47;;
66680;SDS011;53575;51.366;12.350;2022-08-19T06:08:36;54.22;;;37.75;;
66680;SDS011;53575;51.366;12.350;2022-08-19T06:11:15;45.28;;;36.50;;
66680;SDS011;53575;51.366;12.350;2022-08-19T06:13:41;49.67;;;36.38;;
66680;SDS011;53575;51.366;12.350;2022-08-19T06:16:06;47.67;;;36.25;;
66680;SDS011;53575;51.366;12.350;2022-08-19T06:18:32;45.63;;;35.95;;
66680;SDS011;53575;51.366;12.350;2022-08-19T06:21:05;45.08;;;37.03;;
66680;SDS011;53575;51.366;12.350;2022-08-19T06:23:30;48.40;;;37.40;;
66680;SDS011;53575;51.366;12.350;2022-08-19T06:25:56;47.05;;;36.50;;
66680;SDS011;53575;51.366;12.350;2022-08-19T06:28:24;51.78;;;37.83;;
66680;SDS011;53575;51.366;12.350;2022-08-19T06:30:50;58.38;;;40.33;;
66680;SDS011;53575;51.366;12.350;2022-08-19T06:33:16;54.90;;;39.10;;
66680;SDS011;53575;51.366;12.350;2022-08-19T06:35:41;49.13;;;38.10;;
66680;SDS011;53575;51.366;12.350;2022-08-19T06:38:07;48.22;;;38.33;;
66680;SDS011;53575;51.366;12.350;2022-08-19T06:40:34;51.75;;;38.85;;
66680;SDS011;53575;51.366;12.350;2022-08-19T06:43:01;60.53;;;38.60;;
66680;SDS011;53575;51.366;12.350;2022-08-19T06:45:27;51.78;;;39.25;;
66680;SDS011;53575;51.366;12.350;2022-08-19T06:47:53;54.38;;;39.17;;
66680;SDS011;53575;51.366;12.350;2022-08-19T06:50:22;55.22;;;38.67;;
66680;SDS011;53575;51.366;12.350;2022-08-19T06:52:48;49.88;;;38.20;;
66680;SDS011;53575;51.366;12.350;2022-08-19T06:55:14;51.30;;;37.47;;
66680;SDS011;53575;51.366;12.350;2022-08-19T07:00:11;49.97;;;36.17;;
66680;SDS011;53575;51.366;12.350;2022-08-19T07:02:39;47.08;;;37.63;;
66680;SDS011;53575;51.366;12.350;2022-08-19T07:05:09;51.17;;;37.35;;
66680;SDS011;53575;51.366;12.350;2022-08-19T07:07:34;45.25;;;33.97;;
66680;SDS011;53575;51.366;12.350;2022-08-19T07:10:00;49.63;;;34.13;;
66680;SDS011;53575;51.366;12.350;2022-08-19T07:12:30;45.90;;;32.65;;
66680;SDS011;53575;51.366;12.350;2022-08-19T07:14:59;48.47;;;33.53;;
66680;SDS011;53575;51.366;12.350;2022-08-19T07:17:24;47.13;;;33.17;;
66680;SDS011;53575;51.366;12.350;2022-08-19T07:19:50;45.33;;;32.55;;
66680;SDS011;53575;51.366;12.350;2022-08-19T07:22:16;50.75;;;34.25;;
66680;SDS011;53575;51.366;12.350;2022-08-19T07:24:42;44.53;;;33.33;;
66680;SDS011;53575;51.366;12.350;2022-08-19T07:27:08;44.40;;;33.53;;
66680;SDS011;53575;51.366;12.350;2022-08-19T07:29:35;46.97;;;33.85;;
66680;SDS011;53575;51.366;12.350;2022-08-19T07:32:02;42.88;;;30.90;;
66680;SDS011;53575;51.366;12.350;2022-08-19T07:34:29;42.42;;;30.50;;
66680;SDS011;53575;51.366;12.350;2022-08-19T07:36:56;67.70;;;34.75;;
66680;SDS011;53575;51.366;12.350;2022-08-19T07:39:23;72.03;;;31.55;;
66680;SDS011;53575;51.366;12.350;2022-08-19T07:41:51;43.78;;;30.67;;
66680;SDS011;53575;51.366;12.350;2022-08-19T07:44:23;41.28;;;30.13;;
66680;SDS011;53575;51.366;12.350;2022-08-19T07:46:50;44.08;;;30.63;;
66680;SDS011;53575;51.366;12.350;2022-08-19T07:49:19;40.38;;;28.50;;
66680;SDS011;53575;51.366;12.350;2022-08-19T07:51:46;40.67;;;29.35;;
66680;SDS011;53575;51.366;12.350;2022-08-19T07:54:18;37.45;;;29.02;;
66680;SDS011;53575;51.366;12.350;2022-08-19T07:56:44;37.20;;;28.45;;
66680;SDS011;53575;51.366;12.350;2022-08-19T07:59:09;36.72;;;28.63;;
66680;SDS011;53575;51.366;12.350;2022-08-19T08:01:35;37.20;;;28.45;;
66680;SDS011;53575;51.366;12.350;2022-08-19T08:04:01;35.22;;;27.65;;
66680;SDS011;53575;51.366;12.350;2022-08-19T08:06:45;34.10;;;28.35;;
66680;SDS011;53575;51.366;12.350;2022-08-19T08:09:31;34.22;;;28.00;;
66680;SDS011;53575;51.366;12.350;2022-08-19T08:12:00;37.88;;;29.38;;
66680;SDS011;53575;51.366;12.350;2022-08-19T08:14:34;40.50;;;26.55;;
66680;SDS011;53575;51.366;12.350;2022-08-19T08:17:21;39.03;;;28.25;;
66680;SDS011;53575;51.366;12.350;2022-08-19T08:19:49;33.00;;;27.88;;
66680;SDS011;53575;51.366;12.350;2022-08-19T08:22:16;35.55;;;27.65;;
66680;SDS011;53575;51.366;12.350;2022-08-19T08:25:03;36.30;;;27.15;;
66680;SDS011;53575;51.366;12.350;2022-08-19T08:27:30;38.17;;;26.73;;
66680;SDS011;53575;51.366;12.350;2022-08-19T08:29:56;35.55;;;27.70;;
66680;SDS011;53575;51.366;12.350;2022-08-19T08:32:23;38.25;;;28.35;;
66680;SDS011;53575;51.366;12.350;2022-08-19T08:34:48;32.60;;;26.40;;
66680;SDS011;53575;51.366;12.350;2022-08-19T08:37:14;35.83;;;25.95;;
66680;SDS011;53575;51.366;12.350;2022-08-19T08:39:39;37.25;;;28.08;;
66680;SDS011;53575;51.366;12.350;2022-08-19T08:42:07;35.40;;;27.00;;
66680;SDS011;53575;51.366;12.350;2022-08-19T08:44:47;34.72;;;27.08;;
66680;SDS011;53575;51.366;12.350;2022-08-19T08:47:19;36.42;;;26.20;;
66680;SDS011;53575;51.366;12.350;2022-08-19T08:49:51;33.97;;;25.52;;
66680;SDS011;53575;51.366;12.350;2022-08-19T08:52:24;38.05;;;27.05;;
66680;SDS011;53575;51.366;12.350;2022-08-19T08:54:53;34.28;;;25.55;;
66680;SDS011;53575;51.366;12.350;2022-08-19T08:57:27;32.40;;;25.90;;
66680;SDS011;53575;51.366;12.350;2022-08-19T08:59:57;36.95;;;26.65;;
66680;SDS011;53575;51.366;12.350;2022-08-19T09:02:30;34.72;;;25.38;;
66680;SDS011;53575;51.366;12.350;2022-08-19T09:04:55;30.60;;;24.13;;
66680;SDS011;53575;51.366;12.350;2022-08-19T09:10:22;37.75;;;26.38;;
66680;SDS011;53575;51.366;12.350;2022-08-19T09:15:53;38.35;;;26.35;;
66680;SDS011;53575;51.366;12.350;2022-08-19T09:18:23;35.53;;;24.85;;
66680;SDS011;53575;51.366;12.350;2022-08-19T09:20:48;34.70;;;25.25;;
66680;SDS011;53575;51.366;12.350;2022-08-19T09:23:14;34.05;;;24.65;;
66680;SDS011;53575;51.366;12.350;2022-08-19T09:25:40;30.27;;;24.17;;
66680;SDS011;53575;51.366;12.350;2022-08-19T09:28:05;32.50;;;25.88;;
66680;SDS011;53575;51.366;12.350;2022-08-19T09:30:34;32.03;;;26.40;;
66680;SDS011;53575;51.366;12.350;2022-08-19T09:33:04;41.83;;;29.65;;
66680;SDS011;53575;51.366;12.350;2022-08-19T09:35:31;34.80;;;26.50;;
66680;SDS011;53575;51.366;12.350;2022-08-19T09:37:57;33.22;;;26.45;;
66680;SDS011;53575;51.366;12.350;2022-08-19T09:40:24;39.10;;;26.65;;
66680;SDS011;53575;51.366;12.350;2022-08-19T09:42:50;34.95;;;24.98;;
66680;SDS011;53575;51.366;12.350;2022-08-19T09:45:17;33.88;;;25.73;;
66680;SDS011;53575;51.366;12.350;2022-08-19T09:47:46;33.38;;;25.15;;
66680;SDS011;53575;51.366;12.350;2022-08-19T09:50:11;36.92;;;24.75;;
66680;SDS011;53575;51.366;12.350;2022-08-19T09:52:38;31.05;;;23.08;;
66680;SDS011;53575;51.366;12.350;2022-08-19T09:55:04;59.70;;;42.20;;
66680;SDS011;53575;51.366;12.350;2022-08-19T09:57:34;32.72;;;23.50;;
66680;SDS011;53575;51.366;12.350;2022-08-19T10:00:00;31.00;;;23.15;;
66680;SDS011;53575;51.366;12.350;2022-08-19T10:02:26;31.80;;;23.08;;
66680;SDS011;53575;51.366;12.350;2022-08-19T10:04:51;28.23;;;20.95;;
66680;SDS011;53575;51.366;12.350;2022-08-19T10:07:36;28.45;;;20.65;;
66680;SDS011;53575;51.366;12.350;2022-08-19T10:10:05;25.30;;;19.65;;
66680;SDS011;53575;51.366;12.350;2022-08-19T10:12:32;23.15;;;19.15;;
66680;SDS011;53575;51.366;12.350;2022-08-19T10:14:59;25.10;;;19.33;;
66680;SDS011;53575;51.366;12.350;2022-08-19T10:17:25;26.52;;;19.92;;
66680;SDS011;53575;51.366;12.350;2022-08-19T10:19:51;23.35;;;18.65;;
66680;SDS011;53575;51.366;12.350;2022-08-19T10:22:17;24.83;;;19.05;;
66680;SDS011;53575;51.366;12.350;2022-08-19T10:24:43;22.00;;;17.63;;
66680;SDS011;53575;51.366;12.350;2022-08-19T10:27:10;24.35;;;19.38;;
66680;SDS011;53575;51.366;12.350;2022-08-19T10:29:37;22.80;;;18.40;;
66680;SDS011;53575;51.366;12.350;2022-08-19T10:32:04;21.77;;;18.17;;
66680;SDS011;53575;51.366;12.350;2022-08-19T10:34:32;23.23;;;17.50;;
66680;SDS011;53575;51.366;12.350;2022-08-19T10:36:58;24.63;;;16.80;;
66680;SDS011;53575;51.366;12.350;2022-08-19T10:39:25;21.45;;;16.73;;
66680;SDS011;53575;51.366;12.350;2022-08-19T10:41:54;21.13;;;15.90;;
66680;SDS011;53575;51.366;12.350;2022-08-19T10:44:21;18.95;;;14.35;;
66680;SDS011;53575;51.366;12.350;2022-08-19T10:46:48;20.95;;;15.50;;
66680;SDS011;53575;51.366;12.350;2022-08-19T10:49:16;18.08;;;14.80;;
66680;SDS011;53575;51.366;12.350;2022-08-19T10:51:42;27.10;;;16.42;;
66680;SDS011;53575;51.366;12.350;2022-08-19T10:54:26;24.13;;;15.57;;
66680;SDS011;53575;51.366;12.350;2022-08-19T10:57:12;20.80;;;15.18;;
66680;SDS011;53575;51.366;12.350;2022-08-19T10:59:38;22.23;;;16.30;;
66680;SDS011;53575;51.366;12.350;2022-08-19T11:02:05;17.50;;;15.15;;
66680;SDS011;53575;51.366;12.350;2022-08-19T11:04:35;17.75;;;14.32;;
66680;SDS011;53575;51.366;12.350;2022-08-19T11:07:01;17.98;;;13.98;;
66680;SDS011;53575;51.366;12.350;2022-08-19T11:09:26;20.52;;;14.63;;
66680;SDS011;53575;51.366;12.350;2022-08-19T11:11:53;24.33;;;13.48;;
66680;SDS011;53575;51.366;12.350;2022-08-19T11:14:19;16.58;;;13.65;;
66680;SDS011;53575;51.366;12.350;2022-08-19T11:16:46;15.52;;;12.73;;
66680;SDS011;53575;51.366;12.350;2022-08-19T11:19:13;18.45;;;13.13;;
66680;SDS011;53575;51.366;12.350;2022-08-19T11:21:42;18.65;;;12.70;;
66680;SDS011;53575;51.366;12.350;2022-08-19T11:24:16;15.95;;;12.13;;
66680;SDS011;53575;51.366;12.350;2022-08-19T11:26:45;14.70;;;11.73;;
66680;SDS011;53575;51.366;12.350;2022-08-19T11:29:13;19.33;;;11.80;;
66680;SDS011;53575;51.366;12.350;2022-08-19T11:31:40;18.27;;;11.27;;
66680;SDS011;53575;51.366;12.350;2022-08-19T11:34:09;14.10;;;11.00;;
66680;SDS011;53575;51.366;12.350;2022-08-19T11:36:39;18.00;;;12.18;;
66680;SDS011;53575;51.366;12.350;2022-08-19T11:39:07;17.60;;;11.73;;
66680;SDS011;53575;51.366;12.350;2022-08-19T11:41:35;14.43;;;10.68;;
66680;SDS011;53575;51.366;12.350;2022-08-19T11:44:00;16.77;;;11.93;;
66680;SDS011;53575;51.366;12.350;2022-08-19T11:46:28;17.10;;;11.73;;
66680;SDS011;53575;51.366;12.350;2022-08-19T11:48:54;15.90;;;12.77;;
66680;SDS011;53575;51.366;12.350;2022-08-19T11:51:23;18.75;;;13.90;;
66680;SDS011;53575;51.366;12.350;2022-08-19T11:53:52;15.02;;;10.43;;
66680;SDS011;53575;51.366;12.350;2022-08-19T11:56:19;15.88;;;11.75;;
66680;SDS011;53575;51.366;12.350;2022-08-19T11:58:46;15.75;;;11.57;;
66680;SDS011;53575;51.366;12.350;2022-08-19T12:01:12;16.67;;;12.20;;
66680;SDS011;53575;51.366;12.350;2022-08-19T12:03:42;22.40;;;14.55;;
66680;SDS011;53575;51.366;12.350;2022-08-19T12:06:10;17.40;;;11.48;;
66680;SDS011;53575;51.366;12.350;2022-08-19T12:08:40;14.30;;;11.35;;
66680;SDS011;53575;51.366;12.350;2022-08-19T12:11:07;14.88;;;11.02;;
66680;SDS011;53575;51.366;12.350;2022-08-19T12:13:35;13.93;;;11.23;;
66680;SDS011;53575;51.366;12.350;2022-08-19T12:16:06;15.85;;;11.27;;
66680;SDS011;53575;51.366;12.350;2022-08-19T12:18:35;12.98;;;11.10;;
66680;SDS011;53575;51.366;12.350;2022-08-19T12:21:01;14.13;;;11.07;;
66680;SDS011;53575;51.366;12.350;2022-08-19T12:23:26;12.73;;;10.30;;
66680;SDS011;53575;51.366;12.350;2022-08-19T12:25:51;12.57;;;11.20;;
66680;SDS011;53575;51.366;12.350;2022-08-19T12:28:20;16.25;;;11.95;;
66680;SDS011;53575;51.366;12.350;2022-08-19T12:30:48;14.00;;;11.23;;
66680;SDS011;53575;51.366;12.350;2022-08-19T12:33:16;12.93;;;11.50;;
66680;SDS011;53575;51.366;12.350;2022-08-19T12:35:43;13.93;;;11.85;;
66680;SDS011;53575;51.366;12.350;2022-08-19T12:38:10;15.68;;;11.90;;
66680;SDS011;53575;51.366;12.350;2022-08-19T12:40:36;17.05;;;13.50;;
66680;SDS011;53575;51.366;12.350;2022-08-19T12:43:03;14.65;;;11.93;;
66680;SDS011;53575;51.366;12.350;2022-08-19T12:45:29;15.27;;;12.48;;
66680;SDS011;53575;51.366;12.350;2022-08-19T12:47:54;16.77;;;13.50;;
66680;SDS011;53575;51.366;12.350;2022-08-19T12:50:20;13.20;;;11.55;;
66680;SDS011;53575;51.366;12.350;2022-08-19T12:52:46;16.85;;;13.70;;
66680;SDS011;53575;51.366;12.350;2022-08-19T12:55:13;18.30;;;14.13;;
66680;SDS011;53575;51.366;12.350;2022-08-19T12:57:38;18.63;;;12.70;;
66680;SDS011;53575;51.366;12.350;2022-08-19T13:00:22;15.75;;;11.93;;
66680;SDS011;53575;51.366;12.350;2022-08-19T13:02:49;13.85;;;11.55;;
66680;SDS011;53575;51.366;12.350;2022-08-19T13:05:17;17.87;;;13.77;;
66680;SDS011;53575;51.366;12.350;2022-08-19T13:07:46;13.93;;;12.35;;
66680;SDS011;53575;51.366;12.350;2022-08-19T13:10:12;15.27;;;12.90;;
66680;SDS011;53575;51.366;12.350;2022-08-19T13:12:42;13.10;;;11.50;;
66680;SDS011;53575;51.366;12.350;2022-08-19T13:15:13;17.20;;;12.80;;
66680;SDS011;53575;51.366;12.350;2022-08-19T13:17:39;15.13;;;11.38;;
66680;SDS011;53575;51.366;12.350;2022-08-19T13:20:06;13.90;;;12.23;;
66680;SDS011;53575;51.366;12.350;2022-08-19T13:22:35;14.30;;;11.45;;
66680;SDS011;53575;51.366;12.350;2022-08-19T13:25:02;14.70;;;13.00;;
66680;SDS011;53575;51.366;12.350;2022-08-19T13:27:28;17.10;;;13.32;;
66680;SDS011;53575;51.366;12.350;2022-08-19T13:29:54;16.95;;;12.45;;
66680;SDS011;53575;51.366;12.350;2022-08-19T13:32:38;14.55;;;13.00;;
66680;SDS011;53575;51.366;12.350;2022-08-19T13:35:22;17.27;;;13.43;;
66680;SDS011;53575;51.366;12.350;2022-08-19T13:37:48;15.38;;;12.25;;
66680;SDS011;53575;51.366;12.350;2022-08-19T13:40:17;17.50;;;12.77;;
66680;SDS011;53575;51.366;12.350;2022-08-19T13:42:45;15.80;;;12.70;;
66680;SDS011;53575;51.366;12.350;2022-08-19T13:45:13;15.45;;;11.75;;
66680;SDS011;53575;51.366;12.350;2022-08-19T13:47:40;16.42;;;12.30;;
66680;SDS011;53575;51.366;12.350;2022-08-19T13:50:14;15.35;;;12.23;;
66680;SDS011;53575;51.366;12.350;2022-08-19T13:52:41;13.57;;;12.13;;
66680;SDS011;53575;51.366;12.350;2022-08-19T13:55:08;16.15;;;12.95;;
66680;SDS011;53575;51.366;12.350;2022-08-19T13:57:35;16.05;;;11.35;;
66680;SDS011;53575;51.366;12.350;2022-08-19T14:00:05;15.30;;;12.10;;
66680;SDS011;53575;51.366;12.350;2022-08-19T14:02:35;14.30;;;11.82;;
66680;SDS011;53575;51.366;12.350;2022-08-19T14:05:02;14.27;;;11.73;;
66680;SDS011;53575;51.366;12.350;2022-08-19T14:07:28;13.43;;;11.35;;
66680;SDS011;53575;51.366;12.350;2022-08-19T14:09:53;12.40;;;10.60;;
66680;SDS011;53575;51.366;12.350;2022-08-19T14:12:21;14.45;;;11.75;;
66680;SDS011;53575;51.366;12.350;2022-08-19T14:14:47;21.20;;;15.52;;
66680;SDS011;53575;51.366;12.350;2022-08-19T14:17:13;17.98;;;12.30;;
66680;SDS011;53575;51.366;12.350;2022-08-19T14:19:39;13.25;;;10.68;;
66680;SDS011;53575;51.366;12.350;2022-08-19T14:22:04;15.73;;;11.27;;